createdAt,value
2018-09-09T00:00:50.597Z,22.17
2018-09-09T00:03:19.141Z,23.13
2018-09-09T00:05:47.759Z,20.23
2018-09-09T00:08:16.109Z,19.77
2018-09-09T00:10:44.226Z,20.07
2018-09-09T00:13:12.285Z,18.70
2018-09-09T00:15:40.412Z,21.00
2018-09-09T00:18:08.572Z,20.97
2018-09-09T00:20:36.643Z,19.37
2018-09-09T00:23:04.786Z,18.93
2018-09-09T00:25:32.974Z,21.57
2018-09-09T00:28:01.185Z,19.10
2018-09-09T00:30:29.252Z,18.90
2018-09-09T00:32:57.276Z,19.97
2018-09-09T00:35:25.487Z,17.77
2018-09-09T00:37:53.736Z,20.00
2018-09-09T00:40:21.989Z,19.87
2018-09-09T00:42:50.041Z,19.70
2018-09-09T00:45:18.260Z,23.80
2018-09-09T00:47:46.577Z,19.43
2018-09-09T00:50:20.295Z,18.13
2018-09-09T00:52:53.877Z,20.50
2018-09-09T00:55:21.884Z,18.10
2018-09-09T00:57:50.016Z,22.20
2018-09-09T01:01:24.344Z,21.40
2018-09-09T01:03:52.400Z,18.93
2018-09-09T01:06:20.502Z,21.23
2018-09-09T01:08:49.764Z,21.77
2018-09-09T01:11:17.842Z,17.80
2018-09-09T01:13:45.921Z,19.50
2018-09-09T01:16:14.064Z,17.70
2018-09-09T01:18:42.184Z,25.20
2018-09-09T01:21:10.288Z,21.13
2018-09-09T01:23:38.347Z,25.57
2018-09-09T01:26:06.411Z,21.13
2018-09-09T01:28:34.596Z,21.43
2018-09-09T01:31:02.528Z,18.77
2018-09-09T01:33:30.542Z,20.63
2018-09-09T01:35:58.569Z,18.70
2018-09-09T01:38:26.703Z,21.30
2018-09-09T01:40:54.756Z,21.50
2018-09-09T01:43:22.765Z,21.30
2018-09-09T01:45:50.780Z,18.67
2018-09-09T01:48:18.875Z,17.93
2018-09-09T01:50:46.952Z,22.17
2018-09-09T01:53:15.055Z,21.97
2018-09-09T01:55:43.194Z,19.23
2018-09-09T01:58:11.325Z,21.10
2018-09-09T02:00:39.364Z,19.03
2018-09-09T02:03:07.457Z,26.13
2018-09-09T02:05:35.432Z,21.03
2018-09-09T02:08:03.454Z,19.77
2018-09-09T02:10:31.458Z,21.47
2018-09-09T02:12:59.574Z,21.40
2018-09-09T02:15:27.583Z,25.83
2018-09-09T02:17:55.615Z,22.37
2018-09-09T02:20:23.782Z,20.33
2018-09-09T02:22:51.869Z,19.20
2018-09-09T02:25:19.894Z,21.13
2018-09-09T02:27:47.948Z,19.67
2018-09-09T02:30:16.037Z,18.97
2018-09-09T02:32:44.120Z,19.63
2018-09-09T02:35:12.271Z,19.43
2018-09-09T02:37:40.432Z,21.13
2018-09-09T02:40:08.626Z,20.57
2018-09-09T02:42:36.769Z,20.37
2018-09-09T02:45:05.008Z,20.60
2018-09-09T02:47:33.333Z,21.37
2018-09-09T02:50:01.372Z,16.83
2018-09-09T02:52:29.426Z,19.63
2018-09-09T02:54:57.468Z,21.07
2018-09-09T02:57:25.513Z,22.13
2018-09-09T02:59:53.589Z,24.07
2018-09-09T03:02:21.756Z,22.73
2018-09-09T03:04:49.807Z,18.07
2018-09-09T03:07:17.950Z,21.93
2018-09-09T03:09:45.970Z,18.27
2018-09-09T03:12:14.015Z,24.07
2018-09-09T03:14:42.037Z,18.37
2018-09-09T03:17:10.160Z,23.27
2018-09-09T03:19:38.205Z,20.63
2018-09-09T03:22:06.206Z,22.20
2018-09-09T03:24:34.277Z,19.63
2018-09-09T03:27:02.510Z,21.63
2018-09-09T03:29:30.683Z,19.50
2018-09-09T03:31:58.878Z,20.90
2018-09-09T03:34:26.948Z,21.07
2018-09-09T03:36:54.984Z,20.97
2018-09-09T03:39:23.176Z,20.73
2018-09-09T03:41:51.312Z,18.10
2018-09-09T03:44:19.481Z,20.73
2018-09-09T03:46:47.595Z,18.97
2018-09-09T03:49:15.662Z,20.43
2018-09-09T03:51:43.811Z,23.33
2018-09-09T03:54:12.048Z,22.67
2018-09-09T03:56:40.154Z,21.23
2018-09-09T03:59:08.297Z,23.90
2018-09-09T04:01:36.507Z,18.67
2018-09-09T04:04:04.514Z,19.27
2018-09-09T04:06:32.823Z,20.17
2018-09-09T04:09:01.208Z,17.57
2018-09-09T04:11:29.305Z,21.00
2018-09-09T04:13:57.608Z,19.17
2018-09-09T04:16:25.756Z,20.60
2018-09-09T04:18:53.854Z,19.13
2018-09-09T04:21:21.936Z,22.73
2018-09-09T04:23:50.037Z,18.73
2018-09-09T04:26:18.137Z,23.57
2018-09-09T04:28:46.437Z,21.57
2018-09-09T04:31:14.583Z,24.23
2018-09-09T04:33:42.758Z,20.80
2018-09-09T04:36:10.881Z,20.73
2018-09-09T04:38:38.986Z,20.67
2018-09-09T04:41:07.206Z,20.10
2018-09-09T04:43:35.275Z,18.50
2018-09-09T04:46:03.416Z,20.13
2018-09-09T04:48:31.670Z,19.50
2018-09-09T04:50:59.726Z,17.77
2018-09-09T04:53:27.816Z,16.40
2018-09-09T04:55:55.994Z,18.70
2018-09-09T04:58:24.199Z,17.37
2018-09-09T05:00:52.463Z,14.13
2018-09-09T05:03:20.727Z,16.57
2018-09-09T05:05:48.896Z,17.73
2018-09-09T05:08:18.563Z,16.87
2018-09-09T05:10:47.093Z,17.07
2018-09-09T05:13:15.265Z,17.33
2018-09-09T05:15:43.539Z,15.17
2018-09-09T05:18:11.988Z,16.13
2018-09-09T05:20:40.158Z,14.43
2018-09-09T05:23:08.675Z,13.03
2018-09-09T05:25:36.928Z,15.40
2018-09-09T05:28:05.163Z,17.37
2018-09-09T05:30:33.701Z,12.20
2018-09-09T05:33:02.304Z,11.87
2018-09-09T05:35:30.767Z,10.47
2018-09-09T05:37:58.988Z,12.43
2018-09-09T05:40:27.067Z,11.90
2018-09-09T05:42:55.231Z,13.33
2018-09-09T05:45:23.450Z,12.67
2018-09-09T05:47:51.743Z,14.83
2018-09-09T05:50:19.966Z,13.13
2018-09-09T05:52:49.154Z,13.63
2018-09-09T05:55:17.726Z,15.17
2018-09-09T05:57:47.112Z,16.73
2018-09-09T06:00:16.666Z,14.23
2018-09-09T06:02:45.372Z,15.57
2018-09-09T06:05:15.615Z,14.60
2018-09-09T06:07:44.735Z,16.33
2018-09-09T06:10:14.275Z,24.03
2018-09-09T06:12:43.312Z,17.77
2018-09-09T06:15:12.361Z,14.00
2018-09-09T06:17:41.859Z,14.80
2018-09-09T06:20:10.355Z,15.10
2018-09-09T06:22:41.035Z,14.93
2018-09-09T06:25:10.554Z,14.23
2018-09-09T06:27:41.358Z,14.30
2018-09-09T06:30:10.761Z,18.17
2018-09-09T06:32:40.190Z,20.57
2018-09-09T06:35:09.202Z,15.87
2018-09-09T06:37:38.811Z,15.90
2018-09-09T06:40:08.319Z,18.27
2018-09-09T06:42:38.525Z,19.10
2018-09-09T06:45:08.575Z,20.13
2018-09-09T06:47:39.428Z,18.20
2018-09-09T06:50:08.108Z,18.13
2018-09-09T06:52:38.078Z,18.80
2018-09-09T06:55:08.883Z,21.03
2018-09-09T06:57:37.827Z,15.83
2018-09-09T07:00:06.481Z,16.73
2018-09-09T07:02:35.157Z,17.90
2018-09-09T07:05:03.526Z,17.50
2018-09-09T07:07:33.276Z,16.80
2018-09-09T07:10:01.702Z,19.30
2018-09-09T07:12:30.337Z,16.70
2018-09-09T07:15:00.804Z,19.07
2018-09-09T07:17:29.674Z,15.47
2018-09-09T07:19:59.030Z,17.10
2018-09-09T07:22:27.841Z,19.90
2018-09-09T07:24:57.170Z,19.30
2018-09-09T07:27:26.057Z,16.00
2018-09-09T07:29:54.796Z,18.03
2018-09-09T07:32:23.283Z,16.30
2018-09-09T07:34:52.037Z,15.63
2018-09-09T07:37:21.341Z,16.83
2018-09-09T07:39:50.246Z,17.57
2018-09-09T07:42:18.735Z,17.33
2018-09-09T07:44:49.282Z,15.27
2018-09-09T07:47:17.866Z,16.40
2018-09-09T07:49:46.461Z,16.53
2018-09-09T07:52:15.048Z,15.97
2018-09-09T07:54:43.424Z,17.20
2018-09-09T07:57:11.912Z,16.43
2018-09-09T07:59:40.903Z,16.33
2018-09-09T08:02:11.862Z,15.27
2018-09-09T08:04:41.225Z,15.97
2018-09-09T08:07:09.656Z,14.23
2018-09-09T08:09:38.413Z,14.90
2018-09-09T08:12:06.936Z,15.53
2018-09-09T08:14:36.179Z,14.87
2018-09-09T08:17:06.101Z,14.23
2018-09-09T08:19:34.982Z,12.87
2018-09-09T08:22:03.840Z,12.90
2018-09-09T08:24:32.937Z,16.87
2018-09-09T08:27:04.239Z,14.23
2018-09-09T08:29:34.641Z,13.87
2018-09-09T08:32:03.460Z,13.67
2018-09-09T08:34:32.135Z,13.80
2018-09-09T08:37:03.177Z,14.40
2018-09-09T08:39:32.050Z,12.27
2018-09-09T08:42:01.476Z,13.87
2018-09-09T08:44:30.849Z,13.37
2018-09-09T08:47:01.151Z,13.53
2018-09-09T08:49:32.944Z,13.93
2018-09-09T08:52:01.479Z,12.03
2018-09-09T08:54:30.484Z,15.47
2018-09-09T08:57:03.580Z,13.30
2018-09-09T08:59:33.358Z,11.90
2018-09-09T09:02:02.310Z,13.73
2018-09-09T09:04:30.975Z,15.93
2018-09-09T09:07:01.932Z,13.70
2018-09-09T09:09:31.722Z,11.67
2018-09-09T09:12:08.364Z,13.10
2018-09-09T09:14:36.923Z,11.83
2018-09-09T09:17:07.213Z,15.93
2018-09-09T09:19:36.547Z,12.53
2018-09-09T09:22:06.019Z,12.20
2018-09-09T09:24:35.029Z,12.53
2018-09-09T09:27:03.702Z,12.43
2018-09-09T09:29:39.472Z,11.47
2018-09-09T09:32:09.032Z,14.07
2018-09-09T09:34:38.963Z,12.03
2018-09-09T09:37:08.663Z,12.33
2018-09-09T09:39:37.319Z,11.83
2018-09-09T09:42:06.028Z,13.97
2018-09-09T09:44:34.588Z,17.40
2018-09-09T09:47:03.393Z,12.65
2018-09-09T09:49:32.035Z,12.03
2018-09-09T09:52:00.997Z,10.13
2018-09-09T09:54:29.650Z,12.13
2018-09-09T09:56:58.280Z,13.07
2018-09-09T09:59:26.872Z,8.60
2018-09-09T10:01:59.250Z,12.58
2018-09-09T10:04:28.110Z,10.67
2018-09-09T10:06:56.992Z,10.38
2018-09-09T10:09:27.617Z,9.85
2018-09-09T10:11:59.122Z,10.28
2018-09-09T10:14:27.691Z,13.33
2018-09-09T10:16:56.495Z,9.40
2018-09-09T10:19:25.180Z,8.53
2018-09-09T10:21:53.670Z,10.17
2018-09-09T10:24:22.470Z,12.37
2018-09-09T10:26:52.491Z,11.13
2018-09-09T10:29:21.825Z,10.72
2018-09-09T10:31:50.413Z,9.80
2018-09-09T10:34:18.892Z,8.57
2018-09-09T10:36:48.349Z,10.00
2018-09-09T10:39:17.077Z,14.80
2018-09-09T10:41:47.005Z,11.68
2018-09-09T10:44:15.710Z,11.38
2018-09-09T10:46:44.169Z,8.13
2018-09-09T10:49:12.835Z,6.53
2018-09-09T10:51:41.532Z,8.85
2018-09-09T10:54:10.038Z,8.23
2018-09-09T10:56:38.613Z,9.78
2018-09-09T10:59:06.964Z,8.68
2018-09-09T11:01:35.236Z,8.90
2018-09-09T11:04:03.756Z,9.38
2018-09-09T11:06:32.890Z,7.92
2018-09-09T11:09:03.347Z,7.95
2018-09-09T11:11:33.973Z,7.83
2018-09-09T11:14:03.429Z,7.05
2018-09-09T11:16:32.587Z,9.58
2018-09-09T11:19:01.314Z,8.48
2018-09-09T11:21:29.814Z,6.40
2018-09-09T11:23:58.966Z,7.05
2018-09-09T11:26:27.777Z,8.93
2018-09-09T11:28:56.006Z,8.43
2018-09-09T11:31:24.677Z,12.33
2018-09-09T11:33:53.471Z,10.60
2018-09-09T11:36:23.114Z,8.60
2018-09-09T11:38:52.032Z,10.72
2018-09-09T11:41:20.732Z,8.25
2018-09-09T11:43:49.167Z,10.93
2018-09-09T11:46:17.636Z,7.75
2018-09-09T11:48:46.118Z,11.30
2018-09-09T11:51:15.835Z,7.80
2018-09-09T11:53:44.321Z,9.43
2018-09-09T11:56:13.423Z,9.45
2018-09-09T11:58:44.616Z,9.08
2018-09-09T12:01:13.539Z,8.65
2018-09-09T12:03:42.642Z,10.03
2018-09-09T12:06:11.152Z,7.12
2018-09-09T12:08:40.355Z,7.40
2018-09-09T12:11:08.723Z,6.83
2018-09-09T12:13:37.229Z,6.42
2018-09-09T12:16:05.603Z,6.67
2018-09-09T12:18:34.063Z,7.15
2018-09-09T12:21:02.797Z,10.08
2018-09-09T12:23:31.288Z,8.65
2018-09-09T12:26:00.790Z,10.50
2018-09-09T12:28:29.841Z,8.08
2018-09-09T12:30:59.840Z,7.22
2018-09-09T12:33:29.152Z,7.12
2018-09-09T12:35:58.375Z,10.28
2018-09-09T12:38:27.207Z,7.58
2018-09-09T12:40:56.255Z,11.30
2018-09-09T12:43:30.882Z,10.60
2018-09-09T12:46:05.290Z,10.68
2018-09-09T12:48:39.312Z,11.83
2018-09-09T12:51:09.010Z,21.95
2018-09-09T12:53:38.347Z,13.18
2018-09-09T12:56:07.233Z,6.73
2018-09-09T12:58:36.106Z,9.18
2018-09-09T13:01:04.520Z,6.40
2018-09-09T13:03:33.154Z,9.98
2018-09-09T13:06:02.125Z,9.15
2018-09-09T13:08:30.922Z,7.25
2018-09-09T13:10:59.502Z,7.83
2018-09-09T13:13:28.305Z,6.83
2018-09-09T13:16:01.317Z,7.35
2018-09-09T13:18:35.708Z,5.53
2018-09-09T13:21:08.014Z,8.18
2018-09-09T13:23:38.710Z,5.83
2018-09-09T13:26:07.136Z,7.42
2018-09-09T13:28:35.657Z,8.00
2018-09-09T13:31:04.232Z,10.18
2018-09-09T13:33:32.462Z,6.17
2018-09-09T13:36:00.752Z,6.70
2018-09-09T13:38:31.497Z,6.60
2018-09-09T13:41:00.134Z,6.00
2018-09-09T13:43:29.226Z,11.78
2018-09-09T13:45:57.681Z,10.50
2018-09-09T13:48:26.141Z,7.92
2018-09-09T13:50:54.430Z,7.37
2018-09-09T13:53:22.876Z,8.03
2018-09-09T13:55:51.454Z,8.48
2018-09-09T13:58:21.490Z,5.15
2018-09-09T14:00:50.436Z,8.85
2018-09-09T14:03:18.689Z,6.45
2018-09-09T14:05:47.247Z,5.33
2018-09-09T14:08:15.546Z,4.80
2018-09-09T14:10:43.686Z,5.03
2018-09-09T14:13:11.998Z,4.33
2018-09-09T14:15:40.268Z,6.62
2018-09-09T14:18:08.539Z,4.75
2018-09-09T14:20:39.174Z,6.55
2018-09-09T14:23:07.769Z,4.42
2018-09-09T14:25:36.080Z,4.10
2018-09-09T14:28:08.938Z,6.35
2018-09-09T14:30:38.905Z,6.28
2018-09-09T14:33:07.698Z,5.33
2018-09-09T14:35:37.038Z,5.53
2018-09-09T14:38:07.966Z,5.90
2018-09-09T14:40:36.987Z,5.47
2018-09-09T14:43:07.327Z,7.17
2018-09-09T14:45:39.052Z,5.27
2018-09-09T14:48:12.041Z,6.87
2018-09-09T14:50:44.447Z,11.53
2018-09-09T14:53:17.626Z,6.60
2018-09-09T14:55:48.739Z,4.13
2018-09-09T14:58:17.168Z,5.40
2018-09-09T15:00:45.790Z,7.43
2018-09-09T15:03:14.186Z,5.40
2018-09-09T15:05:42.628Z,5.83
2018-09-09T15:08:10.948Z,5.43
2018-09-09T15:10:39.381Z,5.03
2018-09-09T15:13:08.118Z,20.60
2018-09-09T15:15:36.437Z,7.20
2018-09-09T15:18:04.997Z,7.07
2018-09-09T15:20:33.594Z,6.90
2018-09-09T15:23:01.804Z,5.30
2018-09-09T15:25:29.905Z,5.23
2018-09-09T15:27:58.188Z,4.47
2018-09-09T15:30:26.866Z,4.70
2018-09-09T15:32:55.564Z,6.30
2018-09-09T15:35:23.757Z,5.60
2018-09-09T15:37:53.169Z,5.03
2018-09-09T15:40:22.004Z,6.40
2018-09-09T15:42:50.742Z,5.10
2018-09-09T15:45:20.052Z,5.40
2018-09-09T15:47:48.524Z,6.57
2018-09-09T15:50:18.362Z,6.47
2018-09-09T15:52:46.729Z,5.33
2018-09-09T15:55:15.182Z,6.73
2018-09-09T15:57:43.524Z,4.93
2018-09-09T16:00:12.114Z,7.03
2018-09-09T16:02:40.370Z,6.10
2018-09-09T16:05:08.892Z,6.63
2018-09-09T16:07:37.707Z,6.03
2018-09-09T16:10:06.643Z,5.20
2018-09-09T16:12:34.868Z,5.83
2018-09-09T16:15:03.414Z,5.27
2018-09-09T16:17:31.816Z,4.97
2018-09-09T16:20:00.435Z,7.03
2018-09-09T16:22:29.064Z,7.30
2018-09-09T16:24:58.035Z,6.37
2018-09-09T16:27:26.394Z,5.70
2018-09-09T16:29:54.731Z,7.10
2018-09-09T16:32:23.245Z,5.83
2018-09-09T16:34:51.618Z,7.00
2018-09-09T16:37:20.542Z,10.60
2018-09-09T16:39:49.132Z,6.87
2018-09-09T16:42:17.517Z,7.93
2018-09-09T16:44:45.815Z,9.70
2018-09-09T16:47:14.163Z,7.07
2018-09-09T16:49:42.782Z,7.60
2018-09-09T16:52:11.090Z,7.60
2018-09-09T16:54:39.513Z,13.57
2018-09-09T16:57:07.885Z,7.73
2018-09-09T16:59:36.454Z,7.13
2018-09-09T17:02:04.866Z,7.07
2018-09-09T17:04:33.227Z,6.77
2018-09-09T17:07:01.882Z,6.37
2018-09-09T17:09:30.268Z,6.47
2018-09-09T17:11:58.521Z,6.27
2018-09-09T17:14:26.903Z,6.30
2018-09-09T17:16:55.235Z,6.80
2018-09-09T17:19:23.596Z,7.53
2018-09-09T17:21:51.963Z,5.80
2018-09-09T17:24:20.306Z,6.50
2018-09-09T17:26:48.692Z,6.33
2018-09-09T17:29:18.030Z,6.07
2018-09-09T17:31:46.455Z,6.40
2018-09-09T17:34:14.768Z,6.93
2018-09-09T17:36:42.968Z,6.57
2018-09-09T17:39:11.678Z,7.23
2018-09-09T17:41:40.501Z,8.97
2018-09-09T17:44:08.760Z,6.30
2018-09-09T17:46:37.012Z,8.20
2018-09-09T17:49:05.696Z,8.37
2018-09-09T17:51:33.878Z,7.00
2018-09-09T17:54:02.167Z,6.67
2018-09-09T17:56:30.351Z,7.40
2018-09-09T17:58:58.494Z,8.47
2018-09-09T18:01:26.799Z,8.20
2018-09-09T18:03:54.958Z,9.07
2018-09-09T18:06:23.132Z,7.30
2018-09-09T18:08:51.392Z,7.13
2018-09-09T18:11:19.840Z,5.87
2018-09-09T18:13:48.033Z,7.97
2018-09-09T18:16:16.468Z,7.40
2018-09-09T18:18:44.728Z,7.47
2018-09-09T18:21:13.051Z,6.57
2018-09-09T18:23:41.267Z,6.37
2018-09-09T18:26:09.614Z,5.53
2018-09-09T18:28:37.783Z,9.07
2018-09-09T18:31:06.157Z,6.53
2018-09-09T18:33:34.506Z,6.07
2018-09-09T18:36:02.623Z,6.33
2018-09-09T18:38:30.946Z,6.63
2018-09-09T18:40:59.364Z,7.53
2018-09-09T18:43:27.620Z,5.53
2018-09-09T18:45:56.629Z,6.57
2018-09-09T18:48:25.093Z,6.13
2018-09-09T18:50:53.342Z,7.20
2018-09-09T18:53:21.512Z,7.97
2018-09-09T18:55:49.668Z,5.60
2018-09-09T18:58:18.021Z,5.80
2018-09-09T19:00:46.386Z,7.60
2018-09-09T19:03:14.565Z,5.40
2018-09-09T19:05:42.652Z,6.60
2018-09-09T19:08:10.729Z,7.33
2018-09-09T19:10:39.129Z,5.30
2018-09-09T19:13:07.694Z,7.17
2018-09-09T19:15:36.082Z,6.97
2018-09-09T19:18:04.532Z,9.77
2018-09-09T19:20:33.137Z,6.03
2018-09-09T19:23:01.460Z,8.33
2018-09-09T19:25:29.558Z,7.00
2018-09-09T19:27:57.776Z,6.43
2018-09-09T19:30:26.091Z,5.67
2018-09-09T19:32:54.320Z,6.83
2018-09-09T19:35:22.531Z,6.50
2018-09-09T19:37:50.869Z,6.00
2018-09-09T19:40:19.139Z,6.87
2018-09-09T19:42:47.311Z,5.90
2018-09-09T19:45:15.683Z,7.30
2018-09-09T19:47:43.979Z,7.30
2018-09-09T19:50:12.220Z,5.93
2018-09-09T19:52:40.549Z,5.77
2018-09-09T19:55:08.709Z,6.90
2018-09-09T19:57:36.871Z,6.57
2018-09-09T20:00:05.299Z,7.03
2018-09-09T20:02:33.535Z,5.37
2018-09-09T20:05:01.658Z,6.13
2018-09-09T20:07:29.720Z,6.57
2018-09-09T20:09:57.869Z,7.47
2018-09-09T20:12:26.076Z,7.97
2018-09-09T20:14:54.514Z,6.17
2018-09-09T20:17:22.595Z,7.63
2018-09-09T20:19:50.735Z,6.53
2018-09-09T20:22:18.911Z,5.60
2018-09-09T20:24:47.107Z,7.17
2018-09-09T20:27:15.296Z,5.57
2018-09-09T20:29:44.559Z,6.47
2018-09-09T20:32:12.716Z,7.87
2018-09-09T20:34:40.751Z,6.13
2018-09-09T20:37:08.887Z,6.33
2018-09-09T20:39:37.231Z,6.00
2018-09-09T20:42:05.821Z,5.70
2018-09-09T20:44:33.975Z,6.67
2018-09-09T20:49:22.997Z,7.27
2018-09-09T20:51:51.102Z,7.70
2018-09-09T20:54:19.350Z,5.53
2018-09-09T20:56:47.443Z,6.13
2018-09-09T20:59:16.600Z,5.83
2018-09-09T21:01:44.692Z,6.37
2018-09-09T21:04:12.748Z,7.83
2018-09-09T21:06:40.918Z,8.50
2018-09-09T21:09:10.372Z,6.40
2018-09-09T21:11:38.447Z,6.20
2018-09-09T21:14:06.752Z,6.20
2018-09-09T21:16:34.842Z,7.40
2018-09-09T21:19:02.998Z,5.33
2018-09-09T21:21:31.243Z,6.97
2018-09-09T21:23:59.506Z,7.70
2018-09-09T21:26:27.578Z,6.70
2018-09-09T21:28:55.706Z,5.90
2018-09-09T21:31:23.754Z,7.63
2018-09-09T21:33:51.720Z,6.77
2018-09-09T21:36:19.786Z,5.57
2018-09-09T21:38:47.902Z,6.13
2018-09-09T21:41:16.032Z,7.57
2018-09-09T21:43:44.081Z,7.17
2018-09-09T21:46:12.188Z,7.90
2018-09-09T21:48:40.364Z,6.20
2018-09-09T21:51:08.548Z,7.10
2018-09-09T21:53:36.739Z,5.83
2018-09-09T21:56:04.774Z,5.80
2018-09-09T21:58:32.851Z,6.77
2018-09-09T22:01:07.357Z,6.87
2018-09-09T22:03:35.417Z,10.03
2018-09-09T22:06:03.484Z,8.17
2018-09-09T22:08:31.509Z,6.70
2018-09-09T22:10:59.615Z,6.17
2018-09-09T22:13:27.671Z,7.03
2018-09-09T22:15:55.740Z,6.97
2018-09-09T22:18:23.819Z,8.23
2018-09-09T22:20:51.894Z,6.07
2018-09-09T22:23:19.848Z,7.27
2018-09-09T22:25:47.930Z,5.53
2018-09-09T22:28:16.076Z,9.50
2018-09-09T22:30:44.143Z,7.43
2018-09-09T22:33:12.162Z,7.37
2018-09-09T22:35:40.186Z,7.03
2018-09-09T22:38:08.188Z,6.70
2018-09-09T22:40:36.257Z,6.33
2018-09-09T22:43:04.580Z,6.67
2018-09-09T22:45:32.695Z,6.60
2018-09-09T22:48:00.742Z,7.30
2018-09-09T22:50:28.890Z,6.83
2018-09-09T22:52:56.902Z,7.30
2018-09-09T22:55:24.859Z,7.77
2018-09-09T22:57:53.431Z,7.67
2018-09-09T23:00:22.500Z,6.33
2018-09-09T23:02:50.559Z,5.97
2018-09-09T23:05:18.665Z,8.57
2018-09-09T23:07:46.740Z,6.67
2018-09-09T23:10:14.891Z,7.33
2018-09-09T23:12:42.950Z,8.20
2018-09-09T23:15:11.151Z,7.77
2018-09-09T23:17:39.263Z,6.83
2018-09-09T23:20:07.631Z,6.77
2018-09-09T23:22:35.952Z,7.57
2018-09-09T23:25:04.159Z,7.33
2018-09-09T23:27:32.168Z,6.80
2018-09-09T23:30:00.387Z,8.97
2018-09-09T23:32:28.587Z,7.17
2018-09-09T23:34:56.652Z,6.37
2018-09-09T23:37:24.791Z,6.17
2018-09-09T23:39:52.894Z,6.93
2018-09-09T23:42:20.962Z,6.43
2018-09-09T23:44:49.169Z,8.13
2018-09-09T23:47:17.146Z,6.07
2018-09-09T23:49:45.234Z,7.37
2018-09-09T23:52:13.254Z,7.03
2018-09-09T23:54:41.425Z,6.77
2018-09-09T23:57:09.475Z,6.83
2018-09-09T23:59:37.741Z,6.47
